Robert E. Mcallister — WDC8669 — position and weather

sailwx.info

Track history (hours):
 
Tides and Currents Weather Stations Pressure Air Temp Water Temp Dewpoint Dewpoint Depression Visibility Wind Speed Wind Dir Waves Ship Positions

Robert E. Mcallister

Owner: McAllister Towing & Transportation, Staten Island, NY. More information available from US FCC via Universal Licensing System and Coast Guard Vessel Documentation Center.

Last reported at 2014-Nov-21 02:33 UTC. Time now 2014-Nov-21 02:38 UTC.
Position N 40°38' W 074°10'.

Length 34 m; draft 4.3 m.

Type: Tug. MMSI: 367091120.

Date/timePositionNaut miles runAvg speedWind from/ knotsBaromVisibWave heightAir tempDewpointWater temp
2014-Nov-21 02:33N 40°38' W 074°10'0 0.0
2014-Nov-21 01:33N 40°38' W 074°10'2 1.6
2014-Nov-21 00:33N 40°38' W 074°12'5 5.1
2014-Nov-20 23:33N 40°39' W 074°05'1 1.3
2014-Nov-20 22:33N 40°39' W 074°04'5 4.7
2014-Nov-20 21:33N 40°38' W 074°10'0 0.0
2014-Nov-20 20:33N 40°38' W 074°10'0 0.0
2014-Nov-20 19:33N 40°38' W 074°10'2 1.7
2014-Nov-20 18:33N 40°39' W 074°08'1 0.8
2014-Nov-20 17:33N 40°39' W 074°07'0 0.0
2014-Nov-20 16:32N 40°39' W 074°07'0 0.0
2014-Nov-20 15:33N 40°39' W 074°07'2 2.5
2014-Nov-20 14:33N 40°38' W 074°10'0 0.0
2014-Nov-20 13:33N 40°38' W 074°10'1 0.6
2014-Nov-20 12:33N 40°39' W 074°09'1 1.5
2014-Nov-20 11:33N 40°40' W 074°08'3 3.3
2014-Nov-20 10:32N 40°40' W 074°04'1 0.9
2014-Nov-20 09:33N 40°40' W 074°05'1 0.6
2014-Nov-20 08:33N 40°40' W 074°04'0 0.0
2014-Nov-20 07:33N 40°40' W 074°04'0 0.0
2014-Nov-20 06:33N 40°40' W 074°04'2 1.6
2014-Nov-20 05:33N 40°41' W 074°02'5 5.5
2014-Nov-20 04:33N 40°46' W 073°60'4 4.1
2014-Nov-20 03:33N 40°42' W 074°02'7 7.0
2014-Nov-20 02:32N 40°38' W 074°10'0 0.0
2014-Nov-20 01:28N 40°38' W 074°10'1 0.8
2014-Nov-20 00:33N 40°39' W 074°09'1 1.2
2014-Nov-19 23:33N 40°40' W 074°09'1 1.0
2014-Nov-19 22:32N 40°39' W 074°09'1 0.7
2014-Nov-19 21:33N 40°38' W 074°10'0 0.0
2014-Nov-19 20:33N 40°38' W 074°10'0 0.0
2014-Nov-19 19:33N 40°38' W 074°10'0 0.0
2014-Nov-19 18:33N 40°38' W 074°10'0 0.0
2014-Nov-19 17:33N 40°38' W 074°10'0 0.0
2014-Nov-19 16:33N 40°38' W 074°10'0 0.0
2014-Nov-19 15:32N 40°38' W 074°10'0 0.0
2014-Nov-19 14:33N 40°38' W 074°10'0 0.0
2014-Nov-19 13:33N 40°38' W 074°10'4 3.9
2014-Nov-19 12:33N 40°39' W 074°05'1 0.9
2014-Nov-19 11:33N 40°40' W 074°04'2 2.3
2014-Nov-19 10:33N 40°38' W 074°03'3 2.7
2014-Nov-19 09:33N 40°40' W 074°05'4 4.3
2014-Nov-19 08:33N 40°38' W 074°10'0 0.0
2014-Nov-19 07:33N 40°38' W 074°10'0 0.0
2014-Nov-19 06:33N 40°38' W 074°10'0 0.0
2014-Nov-19 05:33N 40°38' W 074°10'1 1.2
2014-Nov-19 04:28N 40°40' W 074°09'1 1.4
2014-Nov-19 03:33N 40°39' W 074°08'1 1.3
2014-Nov-19 02:33N 40°40' W 074°09'0 0.2
2014-Nov-19 01:33N 40°40' W 074°09'1 0.8
2014-Nov-19 00:32N 40°39' W 074°09'1 0.6
2014-Nov-18 23:33N 40°38' W 074°10'3 3.1
2014-Nov-18 22:33N 40°39' W 074°06'0 0.1
2014-Nov-18 21:33N 40°39' W 074°06'4 4.2
2014-Nov-18 20:32N 40°38' W 074°11'0 0.1
2014-Nov-18 19:30N 40°38' W 074°11'1 1.2
2014-Nov-18 18:33N 40°38' W 074°10'1 0.8
2014-Nov-18 17:33N 40°39' W 074°09'2 1.9
2014-Nov-18 16:33N 40°41' W 074°09'2 2.3
2014-Nov-18 15:33N 40°39' W 074°08'3 3.3
2014-Nov-18 14:33N 40°38' W 074°04'0 0.1
2014-Nov-18 13:33N 40°38' W 074°04'4 4.0
2014-Nov-18 12:33N 40°40' W 074°08'1 1.0
2014-Nov-18 11:33N 40°40' W 074°09'5 4.6
2014-Nov-18 10:33N 40°38' W 074°03'1 0.9
2014-Nov-18 09:34N 40°38' W 074°04'0 0.0
2014-Nov-18 08:34N 40°38' W 074°04'0 0.0
2014-Nov-18 07:33N 40°38' W 074°04'4 3.9
2014-Nov-18 06:33N 40°40' W 074°09'1 0.7
2014-Nov-18 05:33N 40°40' W 074°08'2 2.2
2014-Nov-18 04:33N 40°38' W 074°10'0 0.0
2014-Nov-18 03:33N 40°38' W 074°10'0 0.0
2014-Nov-18 02:33N 40°38' W 074°10'0 0.0
2014-Nov-18 01:33N 40°38' W 074°10'0 0.0
2014-Nov-18 00:33N 40°38' W 074°10'0 0.0
2014-Nov-17 23:33N 40°38' W 074°10'2 1.7
2014-Nov-17 22:33N 40°40' W 074°09'4 4.4
2014-Nov-17 21:34N 40°38' W 074°03'2 2.3
2014-Nov-17 20:34N 40°39' W 074°06'3 2.8
2014-Nov-17 19:33N 40°38' W 074°10'0 0.0
2014-Nov-17 18:33N 40°38' W 074°10'0 0.0
2014-Nov-17 17:31N 40°38' W 074°10'0 0.0
2014-Nov-17 16:32N 40°38' W 074°10'0 0.0
2014-Nov-17 15:33N 40°38' W 074°10'0 0.0
2014-Nov-17 14:34N 40°38' W 074°10'0 0.0
2014-Nov-17 13:33N 40°38' W 074°10'2 2.1
2014-Nov-17 12:33N 40°40' W 074°08'2 1.7
2014-Nov-17 11:33N 40°39' W 074°08'4 4.1
2014-Nov-17 10:33N 40°38' W 074°03'5 5.1
2014-Nov-17 09:33N 40°38' W 074°10'0 0.0
2014-Nov-17 08:34N 40°38' W 074°10'0 0.0
2014-Nov-17 07:34N 40°38' W 074°10'0 0.0
2014-Nov-17 06:34N 40°38' W 074°10'2 1.9
2014-Nov-17 05:33N 40°38' W 074°12'2 2.0
2014-Nov-17 04:34N 40°38' W 074°10'0 0.0
2014-Nov-17 03:33N 40°38' W 074°10'0 0.0
2014-Nov-17 02:34N 40°38' W 074°10'0 0.0
2014-Nov-17 01:33N 40°38' W 074°10'2 2.1
2014-Nov-17 00:33N 40°40' W 074°08'2 2.0
2014-Nov-16 23:31N 40°38' W 074°10'0 0.0
2014-Nov-16 22:32N 40°38' W 074°10'0 0.0
2014-Nov-16 21:33N 40°38' W 074°10'0 0.0
2014-Nov-16 20:33N 40°38' W 074°10'0 0.0
2014-Nov-16 19:34N 40°38' W 074°10'0 0.0
2014-Nov-16 18:26N 40°38' W 074°10'0 0.5
2014-Nov-16 17:33N 40°38' W 074°09'6 6.5
2014-Nov-16 16:34N 40°35' W 074°02'7 4.8
2014-Nov-16 15:04N 40°28' W 074°03'1 2.2
2014-Nov-16 14:25N 40°29' W 074°02'1 1.3
2014-Nov-16 13:32N 40°29' W 074°03'8 8.1
2014-Nov-16 12:34N 40°37' W 074°03'5 5.1
2014-Nov-16 11:34N 40°38' W 074°10'0 0.0
2014-Nov-16 10:33N 40°38' W 074°10'0 0.0
2014-Nov-16 09:34N 40°38' W 074°10'0 0.0
2014-Nov-16 08:33N 40°38' W 074°10'0 0.0
2014-Nov-16 07:34N 40°38' W 074°10'0 0.0
2014-Nov-16 06:33N 40°38' W 074°10'0 0.0
2014-Nov-16 05:33N 40°38' W 074°10'0 0.0
2014-Nov-16 04:33N 40°38' W 074°10'0 0.0
2014-Nov-16 03:33N 40°38' W 074°10'0 0.0
2014-Nov-16 02:34N 40°38' W 074°10'2 1.6
2014-Nov-16 01:33N 40°40' W 074°09'0 0.2
2014-Nov-16 00:33N 40°40' W 074°09'2 1.7
2014-Nov-15 23:33N 40°38' W 074°10'0 0.1
2014-Nov-15 22:34N 40°38' W 074°10'3 2.8
2014-Nov-15 21:33N 40°41' W 074°08'2 1.6
2014-Nov-15 20:34N 40°39' W 074°09'1 1.1
2014-Nov-15 19:33N 40°41' W 074°08'1 0.6
2014-Nov-15 18:33N 40°41' W 074°09'3 3.1
2014-Nov-15 17:33N 40°39' W 074°06'1 1.5
2014-Nov-15 16:33N 40°40' W 074°05'1 1.5
2014-Nov-15 15:34N 40°39' W 074°06'3 3.2
2014-Nov-15 14:33N 40°38' W 074°10'0 0.0
2014-Nov-15 13:33N 40°38' W 074°10'0 0.0
2014-Nov-15 12:33N 40°38' W 074°10'0 0.0
2014-Nov-15 11:33N 40°38' W 074°10'0 0.0
2014-Nov-15 10:34N 40°38' W 074°10'0 0.0
2014-Nov-15 09:34N 40°38' W 074°10'0 0.0
2014-Nov-15 08:34N 40°38' W 074°10'1 0.8
2014-Nov-15 07:34N 40°38' W 074°09'3 2.6
2014-Nov-15 06:33N 40°39' W 074°05'5 5.2
2014-Nov-15 05:32N 40°38' W 074°12'2 1.7
2014-Nov-15 04:32N 40°39' W 074°10'0 0.5
2014-Nov-15 03:34N 40°38' W 074°10'4 4.1
2014-Nov-15 02:34N 40°40' W 074°05'1 1.3
2014-Nov-15 01:34N 40°40' W 074°04'4 3.5
2014-Nov-15 00:32N 40°41' W 074°08'2 2.0
2014-Nov-14 23:33N 40°39' W 074°09'1 0.7
2014-Nov-14 22:31N 40°39' W 074°09'1 0.9
2014-Nov-14 21:33N 40°38' W 074°10'0 0.0
2014-Nov-14 20:33N 40°38' W 074°10'0 0.0
2014-Nov-14 19:34N 40°38' W 074°10'0 0.0
2014-Nov-14 18:34N 40°38' W 074°10'0 0.0
2014-Nov-14 17:33N 40°38' W 074°10'0 0.0
2014-Nov-14 16:34N 40°38' W 074°10'0 0.0
2014-Nov-14 15:34N 40°38' W 074°10'0 0.0
2014-Nov-14 14:33N 40°38' W 074°10'3 1.0
2014-Nov-14 11:33N 40°36' W 074°12'2 2.1
2014-Nov-14 10:34N 40°38' W 074°12'2 1.9
2014-Nov-14 09:33N 40°38' W 074°10'0 0.0
2014-Nov-14 08:33N 40°38' W 074°10'0 0.0
2014-Nov-14 07:33N 40°38' W 074°10'0 0.0
2014-Nov-14 06:33N 40°38' W 074°10'0 0.0
2014-Nov-14 05:33N 40°38' W 074°10'1 1.2
2014-Nov-14 04:26N 40°39' W 074°09'0 0.3
2014-Nov-14 03:33N 40°40' W 074°09'2 1.6
2014-Nov-14 02:33N 40°38' W 074°10'0 0.0
2014-Nov-14 01:33N 40°38' W 074°10'0 0.0
2014-Nov-14 00:33N 40°38' W 074°10'1 0.5
2014-Nov-13 23:34N 40°39' W 074°10'6 4.4
2014-Nov-13 22:10N 40°33' W 074°14'0 0.0
2014-Nov-13 21:11N 40°33' W 074°14'0 0.1
2014-Nov-13 20:12N 40°33' W 074°15'4 6.7
2014-Nov-13 19:33N 40°37' W 074°12'4 4.5
2014-Nov-13 18:33N 40°41' W 074°09'3 2.9
2014-Nov-13 17:33N 40°38' W 074°08'2 1.8
2014-Nov-13 16:33N 40°40' W 074°08'4 4.0
2014-Nov-13 15:33N 40°39' W 074°04'1 1.0
2014-Nov-13 14:34N 40°38' W 074°04'1 1.2
2014-Nov-13 13:33N 40°39' W 074°04'3 3.3
2014-Nov-13 12:33N 40°40' W 074°08'2 1.9
2014-Nov-13 11:33N 40°39' W 074°07'2 2.4
2014-Nov-13 10:33N 40°38' W 074°10'0 0.0
2014-Nov-13 09:33N 40°38' W 074°10'0 0.0
2014-Nov-13 08:33N 40°38' W 074°10'0 0.0
2014-Nov-13 07:33N 40°38' W 074°10'2 1.3
2014-Nov-13 06:13N 40°38' W 074°12'0 0.7
2014-Nov-13 05:33N 40°38' W 074°12'6 5.6
2014-Nov-13 04:33N 40°39' W 074°04'4 4.2
2014-Nov-13 03:33N 40°38' W 074°10'0 0.0
2014-Nov-13 02:33N 40°38' W 074°10'0 0.0
2014-Nov-13 01:33N 40°38' W 074°10'1 1.0
2014-Nov-13 00:33N 40°38' W 074°09'3 2.6
2014-Nov-12 23:33N 40°39' W 074°05'2 1.6
2014-Nov-12 22:33N 40°38' W 074°04'1 1.2
2014-Nov-12 21:33N 40°39' W 074°05'4 3.9
2014-Nov-12 20:33N 40°38' W 074°10'0 0.0
2014-Nov-12 19:33N 40°38' W 074°10'0 0.0
2014-Nov-12 18:33N 40°38' W 074°10'4 4.5
2014-Nov-12 17:33N 40°40' W 074°04'1 0.6
2014-Nov-12 16:33N 40°39' W 074°05'4 3.4
2014-Nov-12 15:31N 40°41' W 074°08'0 0.3
2014-Nov-12 14:33N 40°42' W 074°08'0 0.0
2014-Nov-12 13:33N 40°42' W 074°08'0 0.0
2014-Nov-12 12:33N 40°42' W 074°08'3 3.5
2014-Nov-12 11:33N 40°38' W 074°10'0 0.0
2014-Nov-12 10:33N 40°38' W 074°10'0 0.0
2014-Nov-12 09:33N 40°38' W 074°10'0 0.0
2014-Nov-12 08:33N 40°38' W 074°10'0 0.0
2014-Nov-12 07:33N 40°38' W 074°10'0 0.0
2014-Nov-12 06:33N 40°38' W 074°10'0 0.0
2014-Nov-12 05:33N 40°38' W 074°10'2 1.9
2014-Nov-12 04:33N 40°39' W 074°07'3 3.4
2014-Nov-12 03:33N 40°39' W 074°03'1 0.9
2014-Nov-12 02:33N 40°38' W 074°03'2 2.2
2014-Nov-12 01:33N 40°40' W 074°04'0 0.0
2014-Nov-12 00:33N 40°40' W 074°04'0 0.0
2014-Nov-11 23:33N 40°40' W 074°04'0 0.0
2014-Nov-11 22:33N 40°40' W 074°04'0 0.0
2014-Nov-11 21:33N 40°40' W 074°04'0 0.0
2014-Nov-11 20:34N 40°40' W 074°04'1 0.7
2014-Nov-11 19:33N 40°40' W 074°05'0 0.0
2014-Nov-11 18:33N 40°40' W 074°05'1 0.7
2014-Nov-11 17:33N 40°40' W 074°04'3 2.6
2014-Nov-11 16:34N 40°39' W 074°07'0 0.3
2014-Nov-11 15:33N 40°39' W 074°08'3 2.9
2014-Nov-11 14:33N 40°40' W 074°04'0 0.0
2014-Nov-11 13:33N 40°40' W 074°04'0 0.0
2014-Nov-11 12:33N 40°40' W 074°04'1 0.5
2014-Nov-11 11:33N 40°40' W 074°05'3 2.8
2014-Nov-11 10:33N 40°38' W 074°03'1 0.7
2014-Nov-11 09:34N 40°38' W 074°04'4 4.4
2014-Nov-11 08:33N 40°38' W 074°10'0 0.0
2014-Nov-11 07:34N 40°38' W 074°10'0 0.0
2014-Nov-11 06:33N 40°38' W 074°10'0 0.0
2014-Nov-11 05:33N 40°38' W 074°10'0 0.0
2014-Nov-11 04:33N 40°38' W 074°10'1 0.5
2014-Nov-11 03:31N 40°38' W 074°09'  
Track history (hours):
 
Tides and Currents Weather Stations Pressure Air Temp Water Temp Dewpoint Dewpoint Depression Visibility Wind Speed Wind Dir Waves Ship Positions

Robert E. Mcallister

Owner: McAllister Towing & Transportation, Staten Island, NY. More information available from US FCC via Universal Licensing System and Coast Guard Vessel Documentation Center.

Last reported at 2014-Nov-21 02:33 UTC. Time now 2014-Nov-21 02:38 UTC.
Position N 40°38' W 074°10'.

Length 34 m; draft 4.3 m.

Type: Tug. MMSI: 367091120.

Date/timePositionNaut miles runAvg speedWind from/ knotsBaromVisibWave heightAir tempDewpointWater temp
2014-Nov-21 02:33N 40°38' W 074°10'0 0.0
2014-Nov-21 01:33N 40°38' W 074°10'2 1.6
2014-Nov-21 00:33N 40°38' W 074°12'5 5.1
2014-Nov-20 23:33N 40°39' W 074°05'1 1.3
2014-Nov-20 22:33N 40°39' W 074°04'5 4.7
2014-Nov-20 21:33N 40°38' W 074°10'0 0.0
2014-Nov-20 20:33N 40°38' W 074°10'0 0.0
2014-Nov-20 19:33N 40°38' W 074°10'2 1.7
2014-Nov-20 18:33N 40°39' W 074°08'1 0.8
2014-Nov-20 17:33N 40°39' W 074°07'0 0.0
2014-Nov-20 16:32N 40°39' W 074°07'0 0.0
2014-Nov-20 15:33N 40°39' W 074°07'2 2.5
2014-Nov-20 14:33N 40°38' W 074°10'0 0.0
2014-Nov-20 13:33N 40°38' W 074°10'1 0.6
2014-Nov-20 12:33N 40°39' W 074°09'1 1.5
2014-Nov-20 11:33N 40°40' W 074°08'3 3.3
2014-Nov-20 10:32N 40°40' W 074°04'1 0.9
2014-Nov-20 09:33N 40°40' W 074°05'1 0.6
2014-Nov-20 08:33N 40°40' W 074°04'0 0.0
2014-Nov-20 07:33N 40°40' W 074°04'0 0.0
2014-Nov-20 06:33N 40°40' W 074°04'2 1.6
2014-Nov-20 05:33N 40°41' W 074°02'5 5.5
2014-Nov-20 04:33N 40°46' W 073°60'4 4.1
2014-Nov-20 03:33N 40°42' W 074°02'7 7.0
2014-Nov-20 02:32N 40°38' W 074°10'0 0.0
2014-Nov-20 01:28N 40°38' W 074°10'1 0.8
2014-Nov-20 00:33N 40°39' W 074°09'1 1.2
2014-Nov-19 23:33N 40°40' W 074°09'1 1.0
2014-Nov-19 22:32N 40°39' W 074°09'1 0.7
2014-Nov-19 21:33N 40°38' W 074°10'0 0.0
2014-Nov-19 20:33N 40°38' W 074°10'0 0.0
2014-Nov-19 19:33N 40°38' W 074°10'0 0.0
2014-Nov-19 18:33N 40°38' W 074°10'0 0.0
2014-Nov-19 17:33N 40°38' W 074°10'0 0.0
2014-Nov-19 16:33N 40°38' W 074°10'0 0.0
2014-Nov-19 15:32N 40°38' W 074°10'0 0.0
2014-Nov-19 14:33N 40°38' W 074°10'0 0.0
2014-Nov-19 13:33N 40°38' W 074°10'4 3.9
2014-Nov-19 12:33N 40°39' W 074°05'1 0.9
2014-Nov-19 11:33N 40°40' W 074°04'2 2.3
2014-Nov-19 10:33N 40°38' W 074°03'3 2.7
2014-Nov-19 09:33N 40°40' W 074°05'4 4.3
2014-Nov-19 08:33N 40°38' W 074°10'0 0.0
2014-Nov-19 07:33N 40°38' W 074°10'0 0.0
2014-Nov-19 06:33N 40°38' W 074°10'0 0.0
2014-Nov-19 05:33N 40°38' W 074°10'1 1.2
2014-Nov-19 04:28N 40°40' W 074°09'1 1.4
2014-Nov-19 03:33N 40°39' W 074°08'1 1.3
2014-Nov-19 02:33N 40°40' W 074°09'0 0.2
2014-Nov-19 01:33N 40°40' W 074°09'1 0.8
2014-Nov-19 00:32N 40°39' W 074°09'1 0.6
2014-Nov-18 23:33N 40°38' W 074°10'3 3.1
2014-Nov-18 22:33N 40°39' W 074°06'0 0.1
2014-Nov-18 21:33N 40°39' W 074°06'4 4.2
2014-Nov-18 20:32N 40°38' W 074°11'0 0.1
2014-Nov-18 19:30N 40°38' W 074°11'1 1.2
2014-Nov-18 18:33N 40°38' W 074°10'1 0.8
2014-Nov-18 17:33N 40°39' W 074°09'2 1.9
2014-Nov-18 16:33N 40°41' W 074°09'2 2.3
2014-Nov-18 15:33N 40°39' W 074°08'3 3.3
2014-Nov-18 14:33N 40°38' W 074°04'0 0.1
2014-Nov-18 13:33N 40°38' W 074°04'4 4.0
2014-Nov-18 12:33N 40°40' W 074°08'1 1.0
2014-Nov-18 11:33N 40°40' W 074°09'5 4.6
2014-Nov-18 10:33N 40°38' W 074°03'1 0.9
2014-Nov-18 09:34N 40°38' W 074°04'0 0.0
2014-Nov-18 08:34N 40°38' W 074°04'0 0.0
2014-Nov-18 07:33N 40°38' W 074°04'4 3.9
2014-Nov-18 06:33N 40°40' W 074°09'1 0.7
2014-Nov-18 05:33N 40°40' W 074°08'2 2.2
2014-Nov-18 04:33N 40°38' W 074°10'0 0.0
2014-Nov-18 03:33N 40°38' W 074°10'0 0.0
2014-Nov-18 02:33N 40°38' W 074°10'0 0.0
2014-Nov-18 01:33N 40°38' W 074°10'0 0.0
2014-Nov-18 00:33N 40°38' W 074°10'0 0.0
2014-Nov-17 23:33N 40°38' W 074°10'2 1.7
2014-Nov-17 22:33N 40°40' W 074°09'4 4.4
2014-Nov-17 21:34N 40°38' W 074°03'2 2.3
2014-Nov-17 20:34N 40°39' W 074°06'3 2.8
2014-Nov-17 19:33N 40°38' W 074°10'0 0.0
2014-Nov-17 18:33N 40°38' W 074°10'0 0.0
2014-Nov-17 17:31N 40°38' W 074°10'0 0.0
2014-Nov-17 16:32N 40°38' W 074°10'0 0.0
2014-Nov-17 15:33N 40°38' W 074°10'0 0.0
2014-Nov-17 14:34N 40°38' W 074°10'0 0.0
2014-Nov-17 13:33N 40°38' W 074°10'2 2.1
2014-Nov-17 12:33N 40°40' W 074°08'2 1.7
2014-Nov-17 11:33N 40°39' W 074°08'4 4.1
2014-Nov-17 10:33N 40°38' W 074°03'5 5.1
2014-Nov-17 09:33N 40°38' W 074°10'0 0.0
2014-Nov-17 08:34N 40°38' W 074°10'0 0.0
2014-Nov-17 07:34N 40°38' W 074°10'0 0.0
2014-Nov-17 06:34N 40°38' W 074°10'2 1.9
2014-Nov-17 05:33N 40°38' W 074°12'2 2.0
2014-Nov-17 04:34N 40°38' W 074°10'0 0.0
2014-Nov-17 03:33N 40°38' W 074°10'0 0.0
2014-Nov-17 02:34N 40°38' W 074°10'0 0.0
2014-Nov-17 01:33N 40°38' W 074°10'2 2.1
2014-Nov-17 00:33N 40°40' W 074°08'2 2.0
2014-Nov-16 23:31N 40°38' W 074°10'0 0.0
2014-Nov-16 22:32N 40°38' W 074°10'0 0.0
2014-Nov-16 21:33N 40°38' W 074°10'0 0.0
2014-Nov-16 20:33N 40°38' W 074°10'0 0.0
2014-Nov-16 19:34N 40°38' W 074°10'0 0.0
2014-Nov-16 18:26N 40°38' W 074°10'0 0.5
2014-Nov-16 17:33N 40°38' W 074°09'6 6.5
2014-Nov-16 16:34N 40°35' W 074°02'7 4.8
2014-Nov-16 15:04N 40°28' W 074°03'1 2.2
2014-Nov-16 14:25N 40°29' W 074°02'1 1.3
2014-Nov-16 13:32N 40°29' W 074°03'8 8.1
2014-Nov-16 12:34N 40°37' W 074°03'5 5.1
2014-Nov-16 11:34N 40°38' W 074°10'0 0.0
2014-Nov-16 10:33N 40°38' W 074°10'0 0.0
2014-Nov-16 09:34N 40°38' W 074°10'0 0.0
2014-Nov-16 08:33N 40°38' W 074°10'0 0.0
2014-Nov-16 07:34N 40°38' W 074°10'0 0.0
2014-Nov-16 06:33N 40°38' W 074°10'0 0.0
2014-Nov-16 05:33N 40°38' W 074°10'0 0.0
2014-Nov-16 04:33N 40°38' W 074°10'0 0.0
2014-Nov-16 03:33N 40°38' W 074°10'0 0.0
2014-Nov-16 02:34N 40°38' W 074°10'2 1.6
2014-Nov-16 01:33N 40°40' W 074°09'0 0.2
2014-Nov-16 00:33N 40°40' W 074°09'2 1.7
2014-Nov-15 23:33N 40°38' W 074°10'0 0.1
2014-Nov-15 22:34N 40°38' W 074°10'3 2.8
2014-Nov-15 21:33N 40°41' W 074°08'2 1.6
2014-Nov-15 20:34N 40°39' W 074°09'1 1.1
2014-Nov-15 19:33N 40°41' W 074°08'1 0.6
2014-Nov-15 18:33N 40°41' W 074°09'3 3.1
2014-Nov-15 17:33N 40°39' W 074°06'1 1.5
2014-Nov-15 16:33N 40°40' W 074°05'1 1.5
2014-Nov-15 15:34N 40°39' W 074°06'3 3.2
2014-Nov-15 14:33N 40°38' W 074°10'0 0.0
2014-Nov-15 13:33N 40°38' W 074°10'0 0.0
2014-Nov-15 12:33N 40°38' W 074°10'0 0.0
2014-Nov-15 11:33N 40°38' W 074°10'0 0.0
2014-Nov-15 10:34N 40°38' W 074°10'0 0.0
2014-Nov-15 09:34N 40°38' W 074°10'0 0.0
2014-Nov-15 08:34N 40°38' W 074°10'1 0.8
2014-Nov-15 07:34N 40°38' W 074°09'3 2.6
2014-Nov-15 06:33N 40°39' W 074°05'5 5.2
2014-Nov-15 05:32N 40°38' W 074°12'2 1.7
2014-Nov-15 04:32N 40°39' W 074°10'0 0.5
2014-Nov-15 03:34N 40°38' W 074°10'4 4.1
2014-Nov-15 02:34N 40°40' W 074°05'1 1.3
2014-Nov-15 01:34N 40°40' W 074°04'4 3.5
2014-Nov-15 00:32N 40°41' W 074°08'2 2.0
2014-Nov-14 23:33N 40°39' W 074°09'1 0.7
2014-Nov-14 22:31N 40°39' W 074°09'1 0.9
2014-Nov-14 21:33N 40°38' W 074°10'0 0.0
2014-Nov-14 20:33N 40°38' W 074°10'0 0.0
2014-Nov-14 19:34N 40°38' W 074°10'0 0.0
2014-Nov-14 18:34N 40°38' W 074°10'0 0.0
2014-Nov-14 17:33N 40°38' W 074°10'0 0.0
2014-Nov-14 16:34N 40°38' W 074°10'0 0.0
2014-Nov-14 15:34N 40°38' W 074°10'0 0.0
2014-Nov-14 14:33N 40°38' W 074°10'3 1.0
2014-Nov-14 11:33N 40°36' W 074°12'2 2.1
2014-Nov-14 10:34N 40°38' W 074°12'2 1.9
2014-Nov-14 09:33N 40°38' W 074°10'0 0.0
2014-Nov-14 08:33N 40°38' W 074°10'0 0.0
2014-Nov-14 07:33N 40°38' W 074°10'0 0.0
2014-Nov-14 06:33N 40°38' W 074°10'0 0.0
2014-Nov-14 05:33N 40°38' W 074°10'1 1.2
2014-Nov-14 04:26N 40°39' W 074°09'0 0.3
2014-Nov-14 03:33N 40°40' W 074°09'2 1.6
2014-Nov-14 02:33N 40°38' W 074°10'0 0.0
2014-Nov-14 01:33N 40°38' W 074°10'0 0.0
2014-Nov-14 00:33N 40°38' W 074°10'1 0.5
2014-Nov-13 23:34N 40°39' W 074°10'6 4.4
2014-Nov-13 22:10N 40°33' W 074°14'0 0.0
2014-Nov-13 21:11N 40°33' W 074°14'0 0.1
2014-Nov-13 20:12N 40°33' W 074°15'4 6.7
2014-Nov-13 19:33N 40°37' W 074°12'4 4.5
2014-Nov-13 18:33N 40°41' W 074°09'3 2.9
2014-Nov-13 17:33N 40°38' W 074°08'2 1.8
2014-Nov-13 16:33N 40°40' W 074°08'4 4.0
2014-Nov-13 15:33N 40°39' W 074°04'1 1.0
2014-Nov-13 14:34N 40°38' W 074°04'1 1.2
2014-Nov-13 13:33N 40°39' W 074°04'3 3.3
2014-Nov-13 12:33N 40°40' W 074°08'2 1.9
2014-Nov-13 11:33N 40°39' W 074°07'2 2.4
2014-Nov-13 10:33N 40°38' W 074°10'0 0.0
2014-Nov-13 09:33N 40°38' W 074°10'0 0.0
2014-Nov-13 08:33N 40°38' W 074°10'0 0.0
2014-Nov-13 07:33N 40°38' W 074°10'2 1.3
2014-Nov-13 06:13N 40°38' W 074°12'0 0.7
2014-Nov-13 05:33N 40°38' W 074°12'6 5.6
2014-Nov-13 04:33N 40°39' W 074°04'4 4.2
2014-Nov-13 03:33N 40°38' W 074°10'0 0.0
2014-Nov-13 02:33N 40°38' W 074°10'0 0.0
2014-Nov-13 01:33N 40°38' W 074°10'1 1.0
2014-Nov-13 00:33N 40°38' W 074°09'3 2.6
2014-Nov-12 23:33N 40°39' W 074°05'2 1.6
2014-Nov-12 22:33N 40°38' W 074°04'1 1.2
2014-Nov-12 21:33N 40°39' W 074°05'4 3.9
2014-Nov-12 20:33N 40°38' W 074°10'0 0.0
2014-Nov-12 19:33N 40°38' W 074°10'0 0.0
2014-Nov-12 18:33N 40°38' W 074°10'4 4.5
2014-Nov-12 17:33N 40°40' W 074°04'1 0.6
2014-Nov-12 16:33N 40°39' W 074°05'4 3.4
2014-Nov-12 15:31N 40°41' W 074°08'0 0.3
2014-Nov-12 14:33N 40°42' W 074°08'0 0.0
2014-Nov-12 13:33N 40°42' W 074°08'0 0.0
2014-Nov-12 12:33N 40°42' W 074°08'3 3.5
2014-Nov-12 11:33N 40°38' W 074°10'0 0.0
2014-Nov-12 10:33N 40°38' W 074°10'0 0.0
2014-Nov-12 09:33N 40°38' W 074°10'0 0.0
2014-Nov-12 08:33N 40°38' W 074°10'0 0.0
2014-Nov-12 07:33N 40°38' W 074°10'0 0.0
2014-Nov-12 06:33N 40°38' W 074°10'0 0.0
2014-Nov-12 05:33N 40°38' W 074°10'2 1.9
2014-Nov-12 04:33N 40°39' W 074°07'3 3.4
2014-Nov-12 03:33N 40°39' W 074°03'1 0.9
2014-Nov-12 02:33N 40°38' W 074°03'2 2.2
2014-Nov-12 01:33N 40°40' W 074°04'0 0.0
2014-Nov-12 00:33N 40°40' W 074°04'0 0.0
2014-Nov-11 23:33N 40°40' W 074°04'0 0.0
2014-Nov-11 22:33N 40°40' W 074°04'0 0.0
2014-Nov-11 21:33N 40°40' W 074°04'0 0.0
2014-Nov-11 20:34N 40°40' W 074°04'1 0.7
2014-Nov-11 19:33N 40°40' W 074°05'0 0.0
2014-Nov-11 18:33N 40°40' W 074°05'1 0.7
2014-Nov-11 17:33N 40°40' W 074°04'3 2.6
2014-Nov-11 16:34N 40°39' W 074°07'0 0.3
2014-Nov-11 15:33N 40°39' W 074°08'3 2.9
2014-Nov-11 14:33N 40°40' W 074°04'0 0.0
2014-Nov-11 13:33N 40°40' W 074°04'0 0.0
2014-Nov-11 12:33N 40°40' W 074°04'1 0.5
2014-Nov-11 11:33N 40°40' W 074°05'3 2.8
2014-Nov-11 10:33N 40°38' W 074°03'1 0.7
2014-Nov-11 09:34N 40°38' W 074°04'4 4.4
2014-Nov-11 08:33N 40°38' W 074°10'0 0.0
2014-Nov-11 07:34N 40°38' W 074°10'0 0.0
2014-Nov-11 06:33N 40°38' W 074°10'0 0.0
2014-Nov-11 05:33N 40°38' W 074°10'0 0.0
2014-Nov-11 04:33N 40°38' W 074°10'1 0.5
2014-Nov-11 03:31N 40°38' W 074°09'  

Dump ship's entire track history